sensor_id;sensor_type;location;lat;lon;timestamp;P1;durP1;ratioP1;P2;durP2;ratioP2
63046;SDS011;62025;39.238;9.126;2022-07-29T00:00:56;3.70;;;2.20;;
63046;SDS011;62025;39.238;9.126;2022-07-29T00:03:22;5.18;;;2.00;;
63046;SDS011;62025;39.238;9.126;2022-07-29T00:05:48;5.05;;;2.20;;
63046;SDS011;62025;39.238;9.126;2022-07-29T00:08:14;5.93;;;2.10;;
63046;SDS011;62025;39.238;9.126;2022-07-29T00:10:40;3.33;;;2.17;;
63046;SDS011;62025;39.238;9.126;2022-07-29T00:13:07;4.78;;;2.08;;
63046;SDS011;62025;39.238;9.126;2022-07-29T00:15:33;5.38;;;2.22;;
63046;SDS011;62025;39.238;9.126;2022-07-29T00:18:00;4.95;;;2.20;;
63046;SDS011;62025;39.238;9.126;2022-07-29T00:20:26;6.00;;;2.20;;
63046;SDS011;62025;39.238;9.126;2022-07-29T00:22:52;5.10;;;2.10;;
63046;SDS011;62025;39.238;9.126;2022-07-29T00:25:18;7.00;;;2.50;;
63046;SDS011;62025;39.238;9.126;2022-07-29T00:27:44;3.63;;;2.17;;
63046;SDS011;62025;39.238;9.126;2022-07-29T00:30:11;7.78;;;2.15;;
63046;SDS011;62025;39.238;9.126;2022-07-29T00:32:37;3.90;;;2.28;;
63046;SDS011;62025;39.238;9.126;2022-07-29T00:35:04;7.13;;;2.17;;
63046;SDS011;62025;39.238;9.126;2022-07-29T00:37:51;7.60;;;2.40;;
63046;SDS011;62025;39.238;9.126;2022-07-29T00:40:17;4.05;;;2.30;;
63046;SDS011;62025;39.238;9.126;2022-07-29T00:45:14;5.20;;;2.10;;
63046;SDS011;62025;39.238;9.126;2022-07-29T00:47:41;4.32;;;2.15;;
63046;SDS011;62025;39.238;9.126;2022-07-29T00:50:08;5.18;;;2.22;;
63046;SDS011;62025;39.238;9.126;2022-07-29T00:52:37;10.45;;;2.47;;
63046;SDS011;62025;39.238;9.126;2022-07-29T00:57:33;5.93;;;2.55;;
63046;SDS011;62025;39.238;9.126;2022-07-29T01:00:00;5.20;;;2.30;;
63046;SDS011;62025;39.238;9.126;2022-07-29T01:02:29;7.70;;;2.30;;
63046;SDS011;62025;39.238;9.126;2022-07-29T01:04:55;5.60;;;2.38;;
63046;SDS011;62025;39.238;9.126;2022-07-29T01:07:22;5.85;;;2.33;;
63046;SDS011;62025;39.238;9.126;2022-07-29T01:09:51;4.60;;;2.47;;
63046;SDS011;62025;39.238;9.126;2022-07-29T01:12:19;5.15;;;2.10;;
63046;SDS011;62025;39.238;9.126;2022-07-29T01:14:50;7.13;;;2.25;;
63046;SDS011;62025;39.238;9.126;2022-07-29T01:29:32;4.40;;;2.38;;
63046;SDS011;62025;39.238;9.126;2022-07-29T01:32:15;6.95;;;2.22;;
63046;SDS011;62025;39.238;9.126;2022-07-29T01:37:43;6.35;;;2.47;;
63046;SDS011;62025;39.238;9.126;2022-07-29T01:40:24;6.55;;;2.30;;
63046;SDS011;62025;39.238;9.126;2022-07-29T01:42:57;7.32;;;2.80;;
63046;SDS011;62025;39.238;9.126;2022-07-29T01:48:19;4.30;;;2.13;;
63046;SDS011;62025;39.238;9.126;2022-07-29T01:50:53;6.95;;;2.45;;
63046;SDS011;62025;39.238;9.126;2022-07-29T01:56:38;7.75;;;2.80;;
63046;SDS011;62025;39.238;9.126;2022-07-29T01:59:08;4.20;;;2.42;;
63046;SDS011;62025;39.238;9.126;2022-07-29T02:01:36;7.15;;;2.70;;
63046;SDS011;62025;39.238;9.126;2022-07-29T02:04:04;5.65;;;2.40;;
63046;SDS011;62025;39.238;9.126;2022-07-29T02:06:34;5.13;;;2.50;;
63046;SDS011;62025;39.238;9.126;2022-07-29T02:09:04;8.05;;;2.70;;
63046;SDS011;62025;39.238;9.126;2022-07-29T02:11:33;8.35;;;2.60;;
63046;SDS011;62025;39.238;9.126;2022-07-29T02:16:28;7.32;;;3.25;;
63046;SDS011;62025;39.238;9.126;2022-07-29T02:18:56;8.23;;;2.78;;
63046;SDS011;62025;39.238;9.126;2022-07-29T02:21:26;4.68;;;2.72;;
63046;SDS011;62025;39.238;9.126;2022-07-29T02:23:55;6.65;;;2.90;;
63046;SDS011;62025;39.238;9.126;2022-07-29T02:26:25;6.93;;;3.22;;
63046;SDS011;62025;39.238;9.126;2022-07-29T02:28:54;6.60;;;3.03;;
63046;SDS011;62025;39.238;9.126;2022-07-29T02:31:23;4.80;;;3.08;;
63046;SDS011;62025;39.238;9.126;2022-07-29T02:33:54;4.47;;;2.67;;
63046;SDS011;62025;39.238;9.126;2022-07-29T02:36:21;7.55;;;2.80;;
63046;SDS011;62025;39.238;9.126;2022-07-29T02:38:49;7.75;;;3.17;;
63046;SDS011;62025;39.238;9.126;2022-07-29T02:41:23;8.23;;;3.03;;
63046;SDS011;62025;39.238;9.126;2022-07-29T02:43:58;5.90;;;3.00;;
63046;SDS011;62025;39.238;9.126;2022-07-29T02:46:42;5.50;;;3.25;;
63046;SDS011;62025;39.238;9.126;2022-07-29T02:49:36;7.65;;;3.22;;
63046;SDS011;62025;39.238;9.126;2022-07-29T02:52:12;8.88;;;3.30;;
63046;SDS011;62025;39.238;9.126;2022-07-29T02:57:28;6.03;;;3.25;;
63046;SDS011;62025;39.238;9.126;2022-07-29T03:00:18;5.15;;;3.05;;
63046;SDS011;62025;39.238;9.126;2022-07-29T03:02:48;9.68;;;3.20;;
63046;SDS011;62025;39.238;9.126;2022-07-29T03:05:18;7.47;;;3.10;;
63046;SDS011;62025;39.238;9.126;2022-07-29T03:07:47;7.05;;;3.28;;
63046;SDS011;62025;39.238;9.126;2022-07-29T03:10:18;8.15;;;3.40;;
63046;SDS011;62025;39.238;9.126;2022-07-29T03:12:45;5.13;;;3.10;;
63046;SDS011;62025;39.238;9.126;2022-07-29T03:15:12;4.60;;;2.90;;
63046;SDS011;62025;39.238;9.126;2022-07-29T03:17:39;6.10;;;3.15;;
63046;SDS011;62025;39.238;9.126;2022-07-29T03:20:06;7.20;;;3.13;;
63046;SDS011;62025;39.238;9.126;2022-07-29T03:22:38;6.00;;;2.97;;
63046;SDS011;62025;39.238;9.126;2022-07-29T03:25:12;4.60;;;3.13;;
63046;SDS011;62025;39.238;9.126;2022-07-29T03:27:41;5.25;;;2.92;;
63046;SDS011;62025;39.238;9.126;2022-07-29T03:30:08;6.07;;;2.80;;
63046;SDS011;62025;39.238;9.126;2022-07-29T03:32:36;10.30;;;3.10;;
63046;SDS011;62025;39.238;9.126;2022-07-29T03:35:03;4.88;;;3.20;;
63046;SDS011;62025;39.238;9.126;2022-07-29T03:37:30;7.33;;;3.40;;
63046;SDS011;62025;39.238;9.126;2022-07-29T03:39:57;7.93;;;3.83;;
63046;SDS011;62025;39.238;9.126;2022-07-29T03:42:24;5.68;;;3.20;;
63046;SDS011;62025;39.238;9.126;2022-07-29T03:44:53;5.38;;;3.50;;
63046;SDS011;62025;39.238;9.126;2022-07-29T03:47:22;7.18;;;3.22;;
63046;SDS011;62025;39.238;9.126;2022-07-29T03:49:52;6.78;;;3.22;;
63046;SDS011;62025;39.238;9.126;2022-07-29T03:52:25;6.97;;;3.90;;
63046;SDS011;62025;39.238;9.126;2022-07-29T03:54:51;5.68;;;4.03;;
63046;SDS011;62025;39.238;9.126;2022-07-29T03:57:18;8.35;;;4.38;;
63046;SDS011;62025;39.238;9.126;2022-07-29T03:59:50;8.98;;;4.47;;
63046;SDS011;62025;39.238;9.126;2022-07-29T04:02:17;8.48;;;4.53;;
63046;SDS011;62025;39.238;9.126;2022-07-29T04:04:43;10.80;;;4.63;;
63046;SDS011;62025;39.238;9.126;2022-07-29T04:07:13;7.07;;;4.13;;
63046;SDS011;62025;39.238;9.126;2022-07-29T04:09:40;5.70;;;3.90;;
63046;SDS011;62025;39.238;9.126;2022-07-29T04:12:07;10.18;;;4.40;;
63046;SDS011;62025;39.238;9.126;2022-07-29T04:14:34;12.60;;;4.53;;
63046;SDS011;62025;39.238;9.126;2022-07-29T04:17:01;7.78;;;4.22;;
63046;SDS011;62025;39.238;9.126;2022-07-29T04:19:28;6.85;;;3.90;;
63046;SDS011;62025;39.238;9.126;2022-07-29T04:21:55;5.57;;;4.10;;
63046;SDS011;62025;39.238;9.126;2022-07-29T04:24:22;12.50;;;4.37;;
63046;SDS011;62025;39.238;9.126;2022-07-29T04:26:48;6.70;;;3.88;;
63046;SDS011;62025;39.238;9.126;2022-07-29T04:29:15;6.60;;;3.95;;
63046;SDS011;62025;39.238;9.126;2022-07-29T04:31:41;7.13;;;3.67;;
63046;SDS011;62025;39.238;9.126;2022-07-29T04:34:07;7.28;;;3.85;;
63046;SDS011;62025;39.238;9.126;2022-07-29T04:36:34;11.03;;;3.60;;
63046;SDS011;62025;39.238;9.126;2022-07-29T04:39:01;6.43;;;3.58;;
63046;SDS011;62025;39.238;9.126;2022-07-29T04:41:27;9.65;;;3.40;;
63046;SDS011;62025;39.238;9.126;2022-07-29T04:43:54;8.63;;;3.40;;
63046;SDS011;62025;39.238;9.126;2022-07-29T04:46:20;7.13;;;3.10;;
63046;SDS011;62025;39.238;9.126;2022-07-29T04:48:46;6.65;;;2.92;;
63046;SDS011;62025;39.238;9.126;2022-07-29T04:51:13;7.35;;;3.67;;
63046;SDS011;62025;39.238;9.126;2022-07-29T04:53:40;6.65;;;3.03;;
63046;SDS011;62025;39.238;9.126;2022-07-29T04:56:06;7.95;;;2.88;;
63046;SDS011;62025;39.238;9.126;2022-07-29T04:58:36;4.60;;;2.92;;
63046;SDS011;62025;39.238;9.126;2022-07-29T05:01:02;4.97;;;2.67;;
63046;SDS011;62025;39.238;9.126;2022-07-29T05:03:29;6.65;;;3.13;;
63046;SDS011;62025;39.238;9.126;2022-07-29T05:05:55;6.43;;;2.80;;
63046;SDS011;62025;39.238;9.126;2022-07-29T05:08:21;7.68;;;2.80;;
63046;SDS011;62025;39.238;9.126;2022-07-29T05:10:47;5.22;;;2.63;;
63046;SDS011;62025;39.238;9.126;2022-07-29T05:13:13;5.40;;;2.65;;
63046;SDS011;62025;39.238;9.126;2022-07-29T05:15:39;7.18;;;2.60;;
63046;SDS011;62025;39.238;9.126;2022-07-29T05:18:05;6.38;;;2.92;;
63046;SDS011;62025;39.238;9.126;2022-07-29T05:20:32;7.25;;;2.97;;
63046;SDS011;62025;39.238;9.126;2022-07-29T05:23:00;6.20;;;2.88;;
63046;SDS011;62025;39.238;9.126;2022-07-29T05:25:27;9.57;;;3.00;;
63046;SDS011;62025;39.238;9.126;2022-07-29T05:27:54;5.30;;;2.65;;
63046;SDS011;62025;39.238;9.126;2022-07-29T05:30:21;6.82;;;2.95;;
63046;SDS011;62025;39.238;9.126;2022-07-29T05:32:47;5.50;;;2.75;;
63046;SDS011;62025;39.238;9.126;2022-07-29T05:35:14;5.57;;;2.55;;
63046;SDS011;62025;39.238;9.126;2022-07-29T05:37:41;5.28;;;2.60;;
63046;SDS011;62025;39.238;9.126;2022-07-29T05:40:07;8.60;;;2.70;;
63046;SDS011;62025;39.238;9.126;2022-07-29T05:42:35;5.88;;;2.60;;
63046;SDS011;62025;39.238;9.126;2022-07-29T05:45:01;9.50;;;3.00;;
63046;SDS011;62025;39.238;9.126;2022-07-29T05:47:28;8.50;;;2.65;;
63046;SDS011;62025;39.238;9.126;2022-07-29T05:49:54;5.60;;;2.90;;
63046;SDS011;62025;39.238;9.126;2022-07-29T05:52:20;7.05;;;2.97;;
63046;SDS011;62025;39.238;9.126;2022-07-29T05:54:47;4.15;;;2.80;;
63046;SDS011;62025;39.238;9.126;2022-07-29T05:57:16;6.80;;;2.50;;
63046;SDS011;62025;39.238;9.126;2022-07-29T05:59:49;6.05;;;2.88;;
63046;SDS011;62025;39.238;9.126;2022-07-29T06:02:16;6.40;;;3.23;;
63046;SDS011;62025;39.238;9.126;2022-07-29T06:04:43;6.15;;;2.78;;
63046;SDS011;62025;39.238;9.126;2022-07-29T06:07:09;8.60;;;2.63;;
63046;SDS011;62025;39.238;9.126;2022-07-29T06:09:36;5.15;;;3.00;;
63046;SDS011;62025;39.238;9.126;2022-07-29T06:12:03;7.15;;;2.63;;
63046;SDS011;62025;39.238;9.126;2022-07-29T06:14:30;7.00;;;2.70;;
63046;SDS011;62025;39.238;9.126;2022-07-29T06:16:56;5.97;;;2.97;;
63046;SDS011;62025;39.238;9.126;2022-07-29T06:19:22;9.88;;;2.80;;
63046;SDS011;62025;39.238;9.126;2022-07-29T06:21:48;6.93;;;2.80;;
63046;SDS011;62025;39.238;9.126;2022-07-29T06:24:14;5.53;;;2.60;;
63046;SDS011;62025;39.238;9.126;2022-07-29T06:26:41;5.03;;;2.65;;
63046;SDS011;62025;39.238;9.126;2022-07-29T06:29:08;7.38;;;2.97;;
63046;SDS011;62025;39.238;9.126;2022-07-29T06:31:38;8.57;;;2.83;;
63046;SDS011;62025;39.238;9.126;2022-07-29T06:34:04;10.15;;;2.90;;
63046;SDS011;62025;39.238;9.126;2022-07-29T06:36:34;8.65;;;3.30;;
63046;SDS011;62025;39.238;9.126;2022-07-29T06:39:05;6.57;;;2.95;;
63046;SDS011;62025;39.238;9.126;2022-07-29T06:41:33;6.15;;;3.13;;
63046;SDS011;62025;39.238;9.126;2022-07-29T06:44:07;8.43;;;2.90;;
63046;SDS011;62025;39.238;9.126;2022-07-29T06:46:34;9.40;;;3.10;;
63046;SDS011;62025;39.238;9.126;2022-07-29T06:49:00;4.68;;;2.83;;
63046;SDS011;62025;39.238;9.126;2022-07-29T06:51:27;6.47;;;2.70;;
63046;SDS011;62025;39.238;9.126;2022-07-29T06:53:53;5.38;;;2.78;;
63046;SDS011;62025;39.238;9.126;2022-07-29T06:56:19;9.32;;;2.90;;
63046;SDS011;62025;39.238;9.126;2022-07-29T06:58:45;6.32;;;3.00;;
63046;SDS011;62025;39.238;9.126;2022-07-29T07:01:11;9.63;;;3.65;;
63046;SDS011;62025;39.238;9.126;2022-07-29T07:03:37;10.95;;;3.13;;
63046;SDS011;62025;39.238;9.126;2022-07-29T07:06:03;5.63;;;3.40;;
63046;SDS011;62025;39.238;9.126;2022-07-29T07:08:30;6.10;;;3.03;;
63046;SDS011;62025;39.238;9.126;2022-07-29T07:10:56;10.25;;;3.15;;
63046;SDS011;62025;39.238;9.126;2022-07-29T07:13:22;7.65;;;3.20;;
63046;SDS011;62025;39.238;9.126;2022-07-29T07:15:49;8.05;;;3.13;;
63046;SDS011;62025;39.238;9.126;2022-07-29T07:18:16;6.30;;;3.10;;
63046;SDS011;62025;39.238;9.126;2022-07-29T07:20:43;11.95;;;3.63;;
63046;SDS011;62025;39.238;9.126;2022-07-29T07:23:10;9.45;;;3.30;;
63046;SDS011;62025;39.238;9.126;2022-07-29T07:25:36;7.68;;;3.08;;
63046;SDS011;62025;39.238;9.126;2022-07-29T07:28:02;11.90;;;3.20;;
63046;SDS011;62025;39.238;9.126;2022-07-29T07:30:29;16.88;;;3.65;;
63046;SDS011;62025;39.238;9.126;2022-07-29T07:32:56;7.82;;;3.35;;
63046;SDS011;62025;39.238;9.126;2022-07-29T07:35:22;7.40;;;3.60;;
63046;SDS011;62025;39.238;9.126;2022-07-29T07:37:48;6.28;;;3.88;;
63046;SDS011;62025;39.238;9.126;2022-07-29T07:40:14;11.48;;;3.80;;
63046;SDS011;62025;39.238;9.126;2022-07-29T07:42:40;10.88;;;3.35;;
63046;SDS011;62025;39.238;9.126;2022-07-29T07:45:07;9.57;;;3.80;;
63046;SDS011;62025;39.238;9.126;2022-07-29T07:47:38;9.07;;;3.53;;
63046;SDS011;62025;39.238;9.126;2022-07-29T07:50:05;12.73;;;3.28;;
63046;SDS011;62025;39.238;9.126;2022-07-29T07:52:34;10.02;;;3.25;;
63046;SDS011;62025;39.238;9.126;2022-07-29T07:55:11;8.25;;;3.17;;
63046;SDS011;62025;39.238;9.126;2022-07-29T07:57:37;8.73;;;3.38;;
63046;SDS011;62025;39.238;9.126;2022-07-29T08:00:03;5.90;;;3.20;;
63046;SDS011;62025;39.238;9.126;2022-07-29T08:02:37;11.05;;;3.15;;
63046;SDS011;62025;39.238;9.126;2022-07-29T08:05:05;9.57;;;3.35;;
63046;SDS011;62025;39.238;9.126;2022-07-29T08:07:35;6.72;;;3.03;;
63046;SDS011;62025;39.238;9.126;2022-07-29T08:10:02;4.40;;;3.03;;
63046;SDS011;62025;39.238;9.126;2022-07-29T08:12:28;8.98;;;3.20;;
63046;SDS011;62025;39.238;9.126;2022-07-29T08:14:54;7.78;;;2.63;;
63046;SDS011;62025;39.238;9.126;2022-07-29T08:17:20;5.80;;;3.00;;
63046;SDS011;62025;39.238;9.126;2022-07-29T08:19:46;4.70;;;2.70;;
63046;SDS011;62025;39.238;9.126;2022-07-29T08:22:13;5.47;;;3.10;;
63046;SDS011;62025;39.238;9.126;2022-07-29T08:24:39;4.82;;;2.40;;
63046;SDS011;62025;39.238;9.126;2022-07-29T08:27:12;9.55;;;2.70;;
63046;SDS011;62025;39.238;9.126;2022-07-29T08:29:39;4.30;;;2.60;;
63046;SDS011;62025;39.238;9.126;2022-07-29T08:32:05;3.97;;;2.97;;
63046;SDS011;62025;39.238;9.126;2022-07-29T08:34:31;4.43;;;2.67;;
63046;SDS011;62025;39.238;9.126;2022-07-29T08:36:58;7.07;;;2.67;;
63046;SDS011;62025;39.238;9.126;2022-07-29T08:39:24;3.88;;;2.70;;
63046;SDS011;62025;39.238;9.126;2022-07-29T08:41:50;5.88;;;2.83;;
63046;SDS011;62025;39.238;9.126;2022-07-29T08:44:18;8.85;;;2.90;;
63046;SDS011;62025;39.238;9.126;2022-07-29T08:46:44;6.32;;;2.85;;
63046;SDS011;62025;39.238;9.126;2022-07-29T08:49:11;6.68;;;3.10;;
63046;SDS011;62025;39.238;9.126;2022-07-29T08:51:38;9.25;;;3.28;;
63046;SDS011;62025;39.238;9.126;2022-07-29T08:54:06;5.30;;;2.85;;
63046;SDS011;62025;39.238;9.126;2022-07-29T08:56:34;6.90;;;2.58;;
63046;SDS011;62025;39.238;9.126;2022-07-29T08:59:04;7.93;;;2.90;;
63046;SDS011;62025;39.238;9.126;2022-07-29T09:01:33;5.30;;;2.95;;
63046;SDS011;62025;39.238;9.126;2022-07-29T09:04:04;8.82;;;3.53;;
63046;SDS011;62025;39.238;9.126;2022-07-29T09:06:36;5.13;;;2.80;;
63046;SDS011;62025;39.238;9.126;2022-07-29T09:09:08;6.65;;;2.92;;
63046;SDS011;62025;39.238;9.126;2022-07-29T09:11:34;5.95;;;3.30;;
63046;SDS011;62025;39.238;9.126;2022-07-29T09:14:00;4.90;;;2.70;;
63046;SDS011;62025;39.238;9.126;2022-07-29T09:16:42;4.25;;;2.60;;
63046;SDS011;62025;39.238;9.126;2022-07-29T09:19:22;6.10;;;2.88;;
63046;SDS011;62025;39.238;9.126;2022-07-29T09:21:50;6.13;;;2.85;;
63046;SDS011;62025;39.238;9.126;2022-07-29T09:24:23;7.53;;;2.90;;
63046;SDS011;62025;39.238;9.126;2022-07-29T09:26:51;5.97;;;2.80;;
63046;SDS011;62025;39.238;9.126;2022-07-29T09:29:19;5.45;;;2.80;;
63046;SDS011;62025;39.238;9.126;2022-07-29T09:31:49;4.82;;;2.70;;
63046;SDS011;62025;39.238;9.126;2022-07-29T09:34:25;7.78;;;3.13;;
63046;SDS011;62025;39.238;9.126;2022-07-29T09:36:57;5.40;;;2.75;;
63046;SDS011;62025;39.238;9.126;2022-07-29T09:39:29;4.63;;;2.70;;
63046;SDS011;62025;39.238;9.126;2022-07-29T09:41:59;6.07;;;2.83;;
63046;SDS011;62025;39.238;9.126;2022-07-29T09:44:40;6.18;;;3.10;;
63046;SDS011;62025;39.238;9.126;2022-07-29T09:47:13;9.35;;;2.92;;
63046;SDS011;62025;39.238;9.126;2022-07-29T09:52:25;5.93;;;2.90;;
63046;SDS011;62025;39.238;9.126;2022-07-29T09:54:53;7.43;;;3.30;;
63046;SDS011;62025;39.238;9.126;2022-07-29T09:57:35;9.80;;;3.40;;
63046;SDS011;62025;39.238;9.126;2022-07-29T10:00:04;7.05;;;3.13;;
63046;SDS011;62025;39.238;9.126;2022-07-29T10:02:40;12.25;;;3.20;;
63046;SDS011;62025;39.238;9.126;2022-07-29T10:07:54;8.38;;;3.08;;
63046;SDS011;62025;39.238;9.126;2022-07-29T10:12:51;7.47;;;3.30;;
63046;SDS011;62025;39.238;9.126;2022-07-29T10:15:24;6.45;;;2.80;;
63046;SDS011;62025;39.238;9.126;2022-07-29T10:17:54;4.63;;;2.63;;
63046;SDS011;62025;39.238;9.126;2022-07-29T10:22:48;7.55;;;3.10;;
63046;SDS011;62025;39.238;9.126;2022-07-29T10:25:15;5.18;;;2.90;;
63046;SDS011;62025;39.238;9.126;2022-07-29T10:27:43;9.38;;;2.97;;
63046;SDS011;62025;39.238;9.126;2022-07-29T10:30:11;6.65;;;3.00;;
63046;SDS011;62025;39.238;9.126;2022-07-29T10:38:48;5.80;;;2.78;;
63046;SDS011;62025;39.238;9.126;2022-07-29T10:44:23;10.73;;;3.33;;
63046;SDS011;62025;39.238;9.126;2022-07-29T10:49:18;4.53;;;2.90;;
63046;SDS011;62025;39.238;9.126;2022-07-29T11:05:05;9.43;;;3.10;;
63046;SDS011;62025;39.238;9.126;2022-07-29T11:07:38;3.72;;;2.83;;
63046;SDS011;62025;39.238;9.126;2022-07-29T11:10:43;4.85;;;3.08;;
63046;SDS011;62025;39.238;9.126;2022-07-29T11:13:09;6.72;;;2.83;;
63046;SDS011;62025;39.238;9.126;2022-07-29T11:18:30;4.43;;;2.80;;
63046;SDS011;62025;39.238;9.126;2022-07-29T11:20:56;6.78;;;3.10;;
63046;SDS011;62025;39.238;9.126;2022-07-29T11:23:33;4.18;;;2.88;;
63046;SDS011;62025;39.238;9.126;2022-07-29T11:31:41;5.53;;;2.80;;
63046;SDS011;62025;39.238;9.126;2022-07-29T11:34:17;5.07;;;2.70;;
63046;SDS011;62025;39.238;9.126;2022-07-29T11:44:53;6.20;;;3.00;;
63046;SDS011;62025;39.238;9.126;2022-07-29T11:47:34;4.78;;;3.03;;
63046;SDS011;62025;39.238;9.126;2022-07-29T11:50:04;8.00;;;3.10;;
63046;SDS011;62025;39.238;9.126;2022-07-29T11:52:39;6.72;;;3.28;;
63046;SDS011;62025;39.238;9.126;2022-07-29T11:55:09;4.82;;;2.78;;
63046;SDS011;62025;39.238;9.126;2022-07-29T11:57:45;8.77;;;3.20;;
63046;SDS011;62025;39.238;9.126;2022-07-29T12:03:00;7.35;;;2.83;;
63046;SDS011;62025;39.238;9.126;2022-07-29T12:05:30;5.22;;;3.17;;
63046;SDS011;62025;39.238;9.126;2022-07-29T12:08:04;6.93;;;3.33;;
63046;SDS011;62025;39.238;9.126;2022-07-29T12:10:39;6.18;;;3.20;;
63046;SDS011;62025;39.238;9.126;2022-07-29T12:13:06;10.35;;;6.45;;
63046;SDS011;62025;39.238;9.126;2022-07-29T12:15:34;8.98;;;3.25;;
63046;SDS011;62025;39.238;9.126;2022-07-29T12:18:11;4.72;;;3.05;;
63046;SDS011;62025;39.238;9.126;2022-07-29T12:20:39;9.35;;;3.10;;
63046;SDS011;62025;39.238;9.126;2022-07-29T12:23:06;8.48;;;3.25;;
63046;SDS011;62025;39.238;9.126;2022-07-29T12:25:37;7.10;;;3.42;;
63046;SDS011;62025;39.238;9.126;2022-07-29T12:28:06;8.82;;;3.17;;
63046;SDS011;62025;39.238;9.126;2022-07-29T12:30:39;6.68;;;3.20;;
63046;SDS011;62025;39.238;9.126;2022-07-29T12:33:11;10.95;;;2.92;;
63046;SDS011;62025;39.238;9.126;2022-07-29T12:35:56;4.13;;;2.88;;
63046;SDS011;62025;39.238;9.126;2022-07-29T12:38:27;6.68;;;2.80;;
63046;SDS011;62025;39.238;9.126;2022-07-29T12:40:54;8.50;;;3.00;;
63046;SDS011;62025;39.238;9.126;2022-07-29T12:43:21;7.93;;;3.00;;
63046;SDS011;62025;39.238;9.126;2022-07-29T12:45:53;4.57;;;2.60;;
63046;SDS011;62025;39.238;9.126;2022-07-29T12:48:39;4.47;;;2.50;;
63046;SDS011;62025;39.238;9.126;2022-07-29T12:51:07;5.53;;;2.78;;
63046;SDS011;62025;39.238;9.126;2022-07-29T12:56:02;7.63;;;3.10;;
63046;SDS011;62025;39.238;9.126;2022-07-29T12:58:34;5.55;;;2.80;;
63046;SDS011;62025;39.238;9.126;2022-07-29T13:01:06;5.97;;;2.58;;
63046;SDS011;62025;39.238;9.126;2022-07-29T13:03:43;4.25;;;2.65;;
63046;SDS011;62025;39.238;9.126;2022-07-29T13:09:04;4.18;;;2.35;;
63046;SDS011;62025;39.238;9.126;2022-07-29T13:14:10;10.77;;;2.50;;
63046;SDS011;62025;39.238;9.126;2022-07-29T13:16:59;5.53;;;2.40;;
63046;SDS011;62025;39.238;9.126;2022-07-29T13:19:43;4.97;;;2.22;;
63046;SDS011;62025;39.238;9.126;2022-07-29T13:22:13;4.57;;;2.17;;
63046;SDS011;62025;39.238;9.126;2022-07-29T13:27:19;5.33;;;2.30;;
63046;SDS011;62025;39.238;9.126;2022-07-29T13:29:47;5.63;;;2.08;;
63046;SDS011;62025;39.238;9.126;2022-07-29T13:32:16;4.40;;;2.03;;
63046;SDS011;62025;39.238;9.126;2022-07-29T13:34:42;5.72;;;2.05;;
63046;SDS011;62025;39.238;9.126;2022-07-29T13:37:08;5.68;;;2.22;;
63046;SDS011;62025;39.238;9.126;2022-07-29T13:39:34;3.70;;;2.33;;
63046;SDS011;62025;39.238;9.126;2022-07-29T13:42:02;10.98;;;2.30;;
63046;SDS011;62025;39.238;9.126;2022-07-29T13:44:32;6.82;;;2.40;;
63046;SDS011;62025;39.238;9.126;2022-07-29T13:46:58;6.50;;;2.28;;
63046;SDS011;62025;39.238;9.126;2022-07-29T13:49:25;8.23;;;2.28;;
63046;SDS011;62025;39.238;9.126;2022-07-29T13:51:51;4.50;;;2.20;;
63046;SDS011;62025;39.238;9.126;2022-07-29T13:54:17;8.00;;;2.28;;
63046;SDS011;62025;39.238;9.126;2022-07-29T13:56:44;4.80;;;2.25;;
63046;SDS011;62025;39.238;9.126;2022-07-29T13:59:10;5.55;;;2.03;;
63046;SDS011;62025;39.238;9.126;2022-07-29T14:01:36;8.35;;;2.30;;
63046;SDS011;62025;39.238;9.126;2022-07-29T14:04:03;6.82;;;2.30;;
63046;SDS011;62025;39.238;9.126;2022-07-29T14:06:29;5.55;;;2.25;;
63046;SDS011;62025;39.238;9.126;2022-07-29T14:08:55;5.38;;;2.25;;
63046;SDS011;62025;39.238;9.126;2022-07-29T14:11:21;7.65;;;2.25;;
63046;SDS011;62025;39.238;9.126;2022-07-29T14:13:47;4.00;;;2.33;;
63046;SDS011;62025;39.238;9.126;2022-07-29T14:16:13;4.78;;;2.20;;
63046;SDS011;62025;39.238;9.126;2022-07-29T14:18:39;13.18;;;2.60;;
63046;SDS011;62025;39.238;9.126;2022-07-29T14:21:05;8.65;;;2.05;;
63046;SDS011;62025;39.238;9.126;2022-07-29T14:23:31;4.03;;;2.03;;
63046;SDS011;62025;39.238;9.126;2022-07-29T14:25:57;5.57;;;2.20;;
63046;SDS011;62025;39.238;9.126;2022-07-29T14:28:23;5.68;;;2.00;;
63046;SDS011;62025;39.238;9.126;2022-07-29T14:30:49;6.13;;;2.15;;
63046;SDS011;62025;39.238;9.126;2022-07-29T14:33:16;6.38;;;2.10;;
63046;SDS011;62025;39.238;9.126;2022-07-29T14:35:44;5.35;;;2.30;;
63046;SDS011;62025;39.238;9.126;2022-07-29T14:38:10;6.05;;;2.40;;
63046;SDS011;62025;39.238;9.126;2022-07-29T14:40:36;4.35;;;2.35;;
63046;SDS011;62025;39.238;9.126;2022-07-29T14:43:03;7.68;;;2.60;;
63046;SDS011;62025;39.238;9.126;2022-07-29T14:45:29;4.95;;;2.10;;
63046;SDS011;62025;39.238;9.126;2022-07-29T14:47:56;4.35;;;2.22;;
63046;SDS011;62025;39.238;9.126;2022-07-29T14:50:23;7.20;;;2.33;;
63046;SDS011;62025;39.238;9.126;2022-07-29T14:52:49;7.20;;;2.15;;
63046;SDS011;62025;39.238;9.126;2022-07-29T14:55:15;5.95;;;2.15;;
63046;SDS011;62025;39.238;9.126;2022-07-29T14:57:41;6.82;;;2.40;;
63046;SDS011;62025;39.238;9.126;2022-07-29T15:00:07;5.57;;;2.30;;
63046;SDS011;62025;39.238;9.126;2022-07-29T15:02:34;3.38;;;2.10;;
63046;SDS011;62025;39.238;9.126;2022-07-29T15:05:01;6.72;;;2.50;;
63046;SDS011;62025;39.238;9.126;2022-07-29T15:07:27;5.03;;;1.90;;
63046;SDS011;62025;39.238;9.126;2022-07-29T15:09:53;6.72;;;2.20;;
63046;SDS011;62025;39.238;9.126;2022-07-29T15:12:19;4.70;;;2.47;;
63046;SDS011;62025;39.238;9.126;2022-07-29T15:14:46;4.18;;;1.90;;
63046;SDS011;62025;39.238;9.126;2022-07-29T15:17:12;6.30;;;2.47;;
63046;SDS011;62025;39.238;9.126;2022-07-29T15:19:38;4.13;;;2.00;;
63046;SDS011;62025;39.238;9.126;2022-07-29T15:22:04;6.13;;;2.08;;
63046;SDS011;62025;39.238;9.126;2022-07-29T15:24:30;4.65;;;2.33;;
63046;SDS011;62025;39.238;9.126;2022-07-29T15:26:57;7.78;;;2.30;;
63046;SDS011;62025;39.238;9.126;2022-07-29T15:29:23;6.47;;;2.00;;
63046;SDS011;62025;39.238;9.126;2022-07-29T15:31:49;8.43;;;2.40;;
63046;SDS011;62025;39.238;9.126;2022-07-29T15:34:16;4.63;;;2.20;;
63046;SDS011;62025;39.238;9.126;2022-07-29T15:36:43;4.97;;;2.13;;
63046;SDS011;62025;39.238;9.126;2022-07-29T15:39:10;5.80;;;1.83;;
63046;SDS011;62025;39.238;9.126;2022-07-29T15:41:37;6.13;;;2.05;;
63046;SDS011;62025;39.238;9.126;2022-07-29T15:44:04;8.68;;;2.30;;
63046;SDS011;62025;39.238;9.126;2022-07-29T15:46:31;5.60;;;2.10;;
63046;SDS011;62025;39.238;9.126;2022-07-29T15:49:16;5.63;;;2.28;;
63046;SDS011;62025;39.238;9.126;2022-07-29T15:51:43;4.85;;;2.05;;
63046;SDS011;62025;39.238;9.126;2022-07-29T15:54:10;5.32;;;2.13;;
63046;SDS011;62025;39.238;9.126;2022-07-29T15:56:37;3.33;;;2.10;;
63046;SDS011;62025;39.238;9.126;2022-07-29T15:59:04;5.30;;;2.15;;
63046;SDS011;62025;39.238;9.126;2022-07-29T16:01:31;5.38;;;2.40;;
63046;SDS011;62025;39.238;9.126;2022-07-29T16:03:58;5.28;;;2.50;;
63046;SDS011;62025;39.238;9.126;2022-07-29T16:06:24;4.63;;;2.13;;
63046;SDS011;62025;39.238;9.126;2022-07-29T16:08:51;5.10;;;2.30;;
63046;SDS011;62025;39.238;9.126;2022-07-29T16:11:20;4.90;;;2.42;;
63046;SDS011;62025;39.238;9.126;2022-07-29T16:13:47;4.95;;;2.58;;
63046;SDS011;62025;39.238;9.126;2022-07-29T16:16:13;8.68;;;2.30;;
63046;SDS011;62025;39.238;9.126;2022-07-29T16:18:41;5.43;;;2.10;;
63046;SDS011;62025;39.238;9.126;2022-07-29T16:21:07;4.70;;;2.15;;
63046;SDS011;62025;39.238;9.126;2022-07-29T16:23:34;6.07;;;2.20;;
63046;SDS011;62025;39.238;9.126;2022-07-29T16:26:00;8.15;;;2.42;;
63046;SDS011;62025;39.238;9.126;2022-07-29T16:28:28;6.30;;;2.70;;
63046;SDS011;62025;39.238;9.126;2022-07-29T16:30:55;5.15;;;2.28;;
63046;SDS011;62025;39.238;9.126;2022-07-29T16:33:22;6.20;;;2.30;;